Time;durP1;ratioP1;P1;durP2;ratioP2;P2;SDS_P1;SDS_P2;PMS_P1;PMS_P2;Temp;Humidity;BMP_temperature;BMP_pressure;BME280_temperature;BME280_humidity;BME280_pressure;Samples;Min_cycle;Max_cycle;Signal;HPM_P1;HPM_P2
2022/01/12 00:01:31;;;;;;;68.50;27.83;;;-1.70;99.90;;;;;;5144781;28;20461;-48
2022/01/12 00:04:01;;;;;;;73.43;30.93;;;-1.60;99.90;;;;;;5144547;28;20189;-48
2022/01/12 00:06:32;;;;;;;64.93;28.50;;;-1.50;99.90;;;;;;5142741;28;20546;-48
2022/01/12 00:09:06;;;;;;;65.60;29.20;;;-1.60;99.90;;;;;;5143343;28;20265;-47
2022/01/12 00:11:37;;;;;;;68.87;26.70;;;-1.50;99.90;;;;;;5141063;28;20189;-48
2022/01/12 00:14:08;;;;;;;61.83;27.47;;;-1.60;99.90;;;;;;5143066;28;20474;-49
2022/01/12 00:16:40;;;;;;;60.60;29.43;;;-1.50;99.90;;;;;;5144969;28;20443;-48
2022/01/12 00:19:11;;;;;;;68.17;29.53;;;-1.50;99.90;;;;;;5144953;28;20197;-47
2022/01/12 00:21:42;;;;;;;67.43;29.50;;;-1.60;99.90;;;;;;5141057;28;20437;-48
2022/01/12 00:24:12;;;;;;;69.43;28.50;;;-1.60;99.90;;;;;;5139522;28;20204;-49
2022/01/12 00:33:08;;;;;;;57.33;27.20;;;-1.40;99.90;;;;;;5144928;28;20729;-49
2022/01/12 00:35:11;;;;;;;65.27;27.87;;;-1.70;99.90;;;;;;5142390;28;20545;-47
2022/01/12 00:37:42;;;;;;;67.93;30.23;;;-1.70;99.90;;;;;;5145719;28;20441;-46
2022/01/12 00:40:13;;;;;;;76.50;28.57;;;-1.70;99.90;;;;;;5142330;28;20566;-46
2022/01/12 00:42:43;;;;;;;69.93;27.63;;;-1.70;99.90;;;;;;5141311;28;20306;-49
2022/01/12 00:45:14;;;;;;;72.90;29.07;;;-1.60;99.90;;;;;;5147661;28;20256;-48
2022/01/12 00:47:44;;;;;;;62.23;27.90;;;-1.60;99.90;;;;;;5146138;28;20661;-46
2022/01/12 00:50:16;;;;;;;60.60;26.43;;;-1.50;99.90;;;;;;5145118;28;20202;-47
2022/01/12 00:52:48;;;;;;;65.93;27.70;;;-1.60;99.90;;;;;;5139223;28;20202;-47
2022/01/12 00:55:19;;;;;;;60.30;27.53;;;-1.60;99.90;;;;;;5143944;28;20452;-47
2022/01/12 00:57:51;;;;;;;60.93;24.97;;;-1.50;99.90;;;;;;5142383;28;20445;-48
2022/01/12 01:00:21;;;;;;;60.07;26.93;;;-1.50;99.90;;;;;;5139451;28;20320;-48
2022/01/12 01:02:53;;;;;;;60.27;27.07;;;-1.50;99.90;;;;;;5145070;28;20965;-49
2022/01/12 01:05:25;;;;;;;61.07;27.60;;;-1.40;99.90;;;;;;5142891;28;20205;-48
2022/01/12 01:07:56;;;;;;;55.97;26.30;;;-1.40;99.90;;;;;;5143463;28;20773;-47
2022/01/12 01:13:00;;;;;;;65.40;27.70;;;-1.30;99.90;;;;;;5143354;28;20209;-48
2022/01/12 01:26:52;;;;;;;60.00;27.27;;;-1.20;99.90;;;;;;5140294;28;20491;-47
2022/01/12 01:29:23;;;;;;;67.33;29.00;;;-1.10;99.90;;;;;;5140692;28;20458;-47
2022/01/12 01:31:54;;;;;;;54.67;24.50;;;-1.00;99.90;;;;;;5144524;28;20451;-47
2022/01/12 01:34:26;;;;;;;62.90;28.50;;;-1.00;99.90;;;;;;5146718;28;20205;-47
2022/01/12 01:36:57;;;;;;;58.13;24.80;;;-1.00;99.90;;;;;;5139360;28;20189;-47
2022/01/12 01:39:28;;;;;;;53.77;24.07;;;-1.10;99.90;;;;;;5147921;28;20462;-48
2022/01/12 01:42:04;;;;;;;66.37;26.53;;;-1.10;99.90;;;;;;5122441;28;20247;-48
2022/01/12 01:55:40;;;;;;;47.47;22.27;;;-1.00;99.90;;;;;;5145324;28;20496;-47
2022/01/12 01:58:10;;;;;;;64.70;25.90;;;-1.10;99.90;;;;;;5143355;28;20429;-47
2022/01/12 02:00:41;;;;;;;53.00;24.87;;;-1.00;99.90;;;;;;5145076;28;20457;-48
2022/01/12 02:03:12;;;;;;;59.70;24.50;;;-1.00;99.90;;;;;;5136689;28;20647;-48
2022/01/12 02:05:45;;;;;;;55.13;23.27;;;-1.00;99.90;;;;;;5144664;28;20518;-47
2022/01/12 02:08:16;;;;;;;40.77;21.07;;;-1.00;99.90;;;;;;5141737;28;20185;-48
2022/01/12 02:10:51;;;;;;;49.67;22.37;;;-0.90;99.90;;;;;;5141824;28;20540;-48
2022/01/12 02:13:23;;;;;;;46.47;21.87;;;-0.90;99.90;;;;;;5152812;28;20213;-48
2022/01/12 02:15:55;;;;;;;52.93;23.27;;;-0.90;99.90;;;;;;5144870;28;20445;-48
2022/01/12 02:35:36;;;;;;;65.60;24.43;;;-0.90;99.90;;;;;;5141478;28;20487;-48
2022/01/12 02:40:54;;;;;;;49.67;22.83;;;-0.90;99.90;;;;;;5139861;28;20526;-48
2022/01/12 02:53:59;;;;;;;51.23;21.57;;;-0.90;99.90;;;;;;5142533;28;21527;-48
2022/01/12 02:56:33;;;;;;;43.60;20.27;;;-0.90;99.90;;;;;;5142351;28;20442;-48
2022/01/12 02:59:06;;;;;;;53.93;22.33;;;-0.90;99.90;;;;;;5145648;28;20498;-48
2022/01/12 03:04:10;;;;;;;48.33;20.60;;;-0.90;99.90;;;;;;5145834;28;20449;-49
2022/01/12 03:06:42;;;;;;;42.97;20.27;;;-0.90;99.90;;;;;;5147648;28;20208;-48
2022/01/12 03:09:13;;;;;;;50.17;20.60;;;-0.90;99.90;;;;;;5142070;28;20532;-48
2022/01/12 03:11:43;;;;;;;52.30;21.73;;;-0.80;99.90;;;;;;5161241;28;20907;-48
2022/01/12 03:14:14;;;;;;;54.70;22.30;;;-0.80;99.90;;;;;;5144961;28;20209;-47
2022/01/12 03:16:45;;;;;;;60.90;22.87;;;-0.80;99.90;;;;;;5149821;28;20174;-48
2022/01/12 03:19:15;;;;;;;52.17;23.00;;;-0.80;99.90;;;;;;5145387;28;20206;-48
2022/01/12 03:21:46;;;;;;;46.53;20.43;;;-0.80;99.90;;;;;;5144247;28;20173;-50
2022/01/12 03:24:16;;;;;;;59.23;21.97;;;-0.80;99.90;;;;;;5147320;28;20276;-48
2022/01/12 03:26:47;;;;;;;56.90;20.70;;;-0.80;99.90;;;;;;5143174;28;20554;-48
2022/01/12 03:29:17;;;;;;;48.80;20.83;;;-0.80;99.90;;;;;;5148097;28;20208;-49
2022/01/12 03:31:48;;;;;;;54.60;21.57;;;-0.70;99.90;;;;;;5139382;28;20654;-48
2022/01/12 03:34:25;;;;;;;47.77;21.20;;;-0.70;99.90;;;;;;5144298;28;20210;-48
2022/01/12 03:37:18;;;;;;;51.50;20.27;;;-0.70;99.90;;;;;;5140533;28;20268;-49
2022/01/12 03:39:48;;;;;;;45.00;20.27;;;-0.70;99.90;;;;;;5140012;28;20484;-48
2022/01/12 03:42:19;;;;;;;49.43;20.80;;;-0.70;99.90;;;;;;5143388;28;20895;-47
2022/01/12 03:44:49;;;;;;;57.60;23.33;;;-0.70;99.90;;;;;;5145599;28;20192;-48
2022/01/12 03:47:20;;;;;;;52.80;20.70;;;-0.70;99.90;;;;;;5163016;28;20244;-48
2022/01/12 03:49:50;;;;;;;60.07;22.50;;;-0.70;99.90;;;;;;5145475;28;20639;-48
2022/01/12 03:52:21;;;;;;;54.70;21.27;;;-0.70;99.90;;;;;;5145802;28;20265;-46
2022/01/12 03:54:51;;;;;;;53.97;21.00;;;-0.70;99.90;;;;;;5149604;28;20216;-48
2022/01/12 03:57:22;;;;;;;50.60;20.90;;;-0.70;99.90;;;;;;5149088;28;20235;-47
2022/01/12 03:59:53;;;;;;;52.07;21.13;;;-0.70;99.90;;;;;;5164146;28;20201;-48
2022/01/12 04:02:24;;;;;;;54.10;24.17;;;-0.60;99.90;;;;;;5149213;28;20186;-48
2022/01/12 04:05:12;;;;;;;52.43;21.67;;;-0.70;99.90;;;;;;5143243;28;20282;-51
2022/01/12 04:10:31;;;;;;;58.33;23.30;;;-0.60;99.90;;;;;;5141564;28;20464;-49
2022/01/12 04:13:02;;;;;;;53.37;21.73;;;-0.60;99.90;;;;;;5146024;28;20433;-47
2022/01/12 04:15:33;;;;;;;55.83;22.93;;;-0.60;99.90;;;;;;5137368;28;20190;-48
2022/01/12 04:18:03;;;;;;;49.73;21.00;;;-0.60;99.90;;;;;;5144038;28;20199;-47
2022/01/12 04:20:34;;;;;;;69.03;23.37;;;-0.50;99.90;;;;;;5146223;28;20574;-47
2022/01/12 04:23:17;;;;;;;56.33;22.60;;;-0.50;99.90;;;;;;5148185;28;20182;-46
2022/01/12 04:25:50;;;;;;;58.47;21.07;;;-0.60;99.90;;;;;;5144376;28;20264;-48
2022/01/12 04:28:21;;;;;;;55.20;21.90;;;-0.60;99.90;;;;;;5143209;28;20985;-48
2022/01/12 04:30:53;;;;;;;50.57;21.30;;;-0.60;99.90;;;;;;5143458;28;20461;-48
2022/01/12 04:33:24;;;;;;;57.13;21.50;;;-0.60;99.90;;;;;;5143663;28;20472;-47
2022/01/12 04:35:56;;;;;;;61.20;21.97;;;-0.60;99.90;;;;;;5142808;28;20447;-51
2022/01/12 04:38:30;;;;;;;60.40;23.80;;;-0.50;99.90;;;;;;5144652;28;20469;-53
2022/01/12 04:41:03;;;;;;;53.90;21.80;;;-0.50;99.90;;;;;;5134659;28;20464;-48
2022/01/12 04:43:36;;;;;;;47.13;19.87;;;-0.50;99.90;;;;;;5146362;28;20448;-48
2022/01/12 04:48:52;;;;;;;56.77;23.00;;;-0.50;99.90;;;;;;5145371;28;20519;-48
2022/01/12 04:51:23;;;;;;;58.80;23.67;;;-0.50;99.90;;;;;;5138803;28;20313;-47
2022/01/12 04:53:54;;;;;;;65.93;24.30;;;-0.50;99.90;;;;;;5144502;28;20569;-47
2022/01/12 04:56:28;;;;;;;56.23;23.10;;;-0.50;99.90;;;;;;5148938;28;20579;-48
2022/01/12 04:58:59;;;;;;;59.57;23.33;;;-0.50;99.90;;;;;;5138361;28;20546;-48
2022/01/12 05:01:35;;;;;;;59.97;23.37;;;-0.40;99.90;;;;;;5139572;28;20555;-47
2022/01/12 05:07:11;;;;;;;57.37;22.73;;;-0.40;99.90;;;;;;5142652;28;20860;-48
2022/01/12 05:10:02;;;;;;;56.63;21.10;;;-0.40;99.90;;;;;;5142205;28;20493;-48
2022/01/12 05:12:52;;;;;;;50.00;20.57;;;-0.40;99.90;;;;;;5145435;28;20526;-48
2022/01/12 05:15:29;;;;;;;57.07;21.03;;;-0.40;99.90;;;;;;5148532;28;20482;-48
2022/01/12 05:18:03;;;;;;;52.33;21.20;;;-0.50;99.90;;;;;;5137129;28;20436;-49
2022/01/12 05:20:34;;;;;;;50.37;20.90;;;-0.40;99.90;;;;;;5140684;28;20466;-50
2022/01/12 05:23:04;;;;;;;58.17;22.80;;;-0.40;99.90;;;;;;5130574;28;20428;-48
2022/01/12 05:25:35;;;;;;;53.70;20.47;;;-0.40;99.90;;;;;;5143606;28;20876;-48
2022/01/12 05:28:06;;;;;;;68.80;24.83;;;-0.40;99.90;;;;;;5137802;28;20180;-48
2022/01/12 05:30:37;;;;;;;57.10;24.10;;;-0.40;99.90;;;;;;5137183;28;20218;-50
2022/01/12 05:33:07;;;;;;;51.00;22.40;;;-0.30;99.90;;;;;;5138031;28;20457;-47
2022/01/12 05:35:38;;;;;;;70.07;22.63;;;-0.30;99.90;;;;;;5145465;28;20186;-47
2022/01/12 05:38:12;;;;;;;57.37;21.60;;;-0.40;99.90;;;;;;5143043;28;20181;-48
2022/01/12 05:40:46;;;;;;;62.00;23.20;;;-0.40;99.90;;;;;;5143371;28;20273;-49
2022/01/12 05:43:21;;;;;;;51.40;20.83;;;-0.40;99.90;;;;;;5137710;28;21011;-49
2022/01/12 05:45:54;;;;;;;49.53;19.53;;;-0.40;99.90;;;;;;5137701;28;20437;-47
2022/01/12 05:51:13;;;;;;;56.03;22.87;;;-0.40;99.90;;;;;;5143800;28;20448;-49
2022/01/12 05:53:44;;;;;;;63.47;23.80;;;-0.40;99.90;;;;;;5138716;28;20479;-48
2022/01/12 05:56:15;;;;;;;54.20;23.97;;;-0.40;99.90;;;;;;5138654;28;20183;-48
2022/01/12 05:58:45;;;;;;;59.70;22.70;;;-0.50;99.90;;;;;;5152222;28;20175;-48
2022/01/12 06:01:17;;;;;;;59.87;23.93;;;-0.60;99.90;;;;;;5141008;28;20561;-48
2022/01/12 06:03:48;;;;;;;66.63;24.10;;;-0.60;99.90;;;;;;5141829;28;20190;-50
2022/01/12 06:06:18;;;;;;;57.07;20.90;;;-0.60;99.90;;;;;;5140594;28;20441;-48
2022/01/12 06:08:49;;;;;;;53.30;23.03;;;-0.70;99.90;;;;;;5144331;28;20548;-47
2022/01/12 06:11:19;;;;;;;52.43;21.57;;;-0.80;99.90;;;;;;5139982;28;20565;-47
2022/01/12 06:13:52;;;;;;;64.00;25.60;;;-0.80;99.90;;;;;;5139177;28;20659;-47
2022/01/12 06:16:22;;;;;;;51.00;21.97;;;-0.80;99.90;;;;;;5157422;28;20174;-45
2022/01/12 06:18:53;;;;;;;51.97;22.33;;;-0.50;99.90;;;;;;5134218;28;20441;-47
2022/01/12 06:21:23;;;;;;;57.63;21.17;;;-0.40;99.90;;;;;;5144799;28;20236;-46
2022/01/12 06:23:54;;;;;;;62.57;21.87;;;-0.70;99.90;;;;;;5137290;28;20556;-47
2022/01/12 06:26:26;;;;;;;58.63;24.70;;;-0.80;99.90;;;;;;5139965;28;20776;-47
2022/01/12 06:29:23;;;;;;;62.80;22.40;;;-0.90;99.90;;;;;;5137923;28;20232;-48
2022/01/12 06:31:56;;;;;;;59.90;21.83;;;-1.00;99.90;;;;;;5140512;23;20575;-51
2022/01/12 06:34:26;;;;;;;62.23;23.07;;;-1.00;99.90;;;;;;5135963;28;20467;-48
2022/01/12 06:36:57;;;;;;;60.47;23.77;;;-0.90;99.90;;;;;;5138492;28;20433;-50
2022/01/12 06:39:28;;;;;;;59.30;24.53;;;-0.70;99.90;;;;;;5141016;28;22637;-49
2022/01/12 06:41:58;;;;;;;67.07;24.30;;;-0.80;99.90;;;;;;5138546;28;20550;-49
2022/01/12 06:44:29;;;;;;;63.53;24.93;;;-0.70;99.90;;;;;;5140386;28;20189;-49
2022/01/12 06:47:03;;;;;;;64.30;22.43;;;-0.70;99.90;;;;;;5136986;28;20551;-50
2022/01/12 06:49:33;;;;;;;60.87;23.27;;;-0.70;99.90;;;;;;5136715;28;20237;-48
2022/01/12 06:52:05;;;;;;;74.33;24.40;;;-0.80;99.90;;;;;;5141705;28;21035;-49
2022/01/12 06:54:35;;;;;;;63.57;22.67;;;-0.70;99.90;;;;;;5137249;28;20209;-49
2022/01/12 06:57:06;;;;;;;59.70;25.00;;;-0.60;99.90;;;;;;5137996;28;20441;-49
2022/01/12 06:59:37;;;;;;;78.83;25.10;;;-0.40;99.90;;;;;;5138444;28;20756;-49
2022/01/12 07:02:07;;;;;;;66.17;25.93;;;-0.40;99.90;;;;;;5133098;28;20599;-49
2022/01/12 07:04:38;;;;;;;51.23;20.23;;;-0.40;99.90;;;;;;5136137;28;20186;-50
2022/01/12 07:07:10;;;;;;;54.07;23.43;;;-0.40;99.90;;;;;;5136774;28;20209;-50
2022/01/12 07:09:40;;;;;;;76.40;24.97;;;-0.50;99.90;;;;;;5133670;28;20236;-49
2022/01/12 07:12:11;;;;;;;53.30;21.23;;;-0.60;99.90;;;;;;5133722;28;20432;-50
2022/01/12 07:14:42;;;;;;;55.93;22.43;;;-0.60;99.90;;;;;;5121550;28;20222;-50
2022/01/12 07:17:13;;;;;;;65.70;22.43;;;-0.60;99.90;;;;;;5142023;28;20186;-50
2022/01/12 07:19:44;;;;;;;67.13;26.00;;;-0.40;99.90;;;;;;5141270;28;20491;-49
2022/01/12 07:22:14;;;;;;;64.73;22.87;;;-0.40;99.90;;;;;;5139964;28;20445;-49
2022/01/12 07:24:45;;;;;;;69.93;24.20;;;-0.40;99.90;;;;;;5133698;28;20190;-49
2022/01/12 07:27:15;;;;;;;71.53;22.50;;;-0.50;99.90;;;;;;5138536;28;20202;-49
2022/01/12 07:29:46;;;;;;;49.97;21.10;;;-0.40;99.90;;;;;;5136797;28;20550;-50
2022/01/12 07:32:16;;;;;;;47.87;21.90;;;-0.40;99.90;;;;;;5137383;28;20200;-49
2022/01/12 07:34:47;;;;;;;57.13;22.07;;;-0.40;99.90;;;;;;5139953;28;20553;-50
2022/01/12 07:37:17;;;;;;;64.03;23.13;;;-0.30;99.90;;;;;;5135085;28;20194;-49
2022/01/12 07:39:49;;;;;;;50.37;23.00;;;-0.30;99.90;;;;;;5138691;28;20197;-50
2022/01/12 07:42:19;;;;;;;65.93;26.23;;;-0.20;99.90;;;;;;5135342;28;21471;-50
2022/01/12 07:44:58;;;;;;;54.73;21.90;;;-0.10;99.90;;;;;;5143771;28;20473;-49
2022/01/12 07:47:30;;;;;;;71.77;24.97;;;0.00;99.90;;;;;;5139379;28;20280;-49
2022/01/12 07:50:02;;;;;;;57.33;22.10;;;0.00;99.90;;;;;;5139025;28;20492;-49
2022/01/12 07:52:33;;;;;;;61.50;22.90;;;0.10;99.90;;;;;;5135902;28;20849;-49
2022/01/12 07:55:05;;;;;;;60.13;22.07;;;0.20;99.90;;;;;;5140987;28;20644;-50
2022/01/12 07:57:36;;;;;;;75.67;27.60;;;0.20;99.90;;;;;;5141759;28;20214;-49
2022/01/12 08:00:07;;;;;;;62.00;26.80;;;0.30;99.90;;;;;;5142119;28;20500;-50
2022/01/12 08:02:37;;;;;;;62.43;26.20;;;0.50;99.90;;;;;;5144844;28;20200;-49
2022/01/12 08:05:09;;;;;;;57.17;23.60;;;0.60;99.90;;;;;;5140175;28;20452;-49
2022/01/12 08:07:40;;;;;;;78.10;26.90;;;0.70;99.90;;;;;;5138622;28;20269;-49
2022/01/12 08:10:11;;;;;;;72.77;27.07;;;0.80;99.90;;;;;;5129116;28;20463;-50
2022/01/12 08:12:42;;;;;;;56.73;24.60;;;0.80;99.90;;;;;;5140053;28;20495;-51
2022/01/12 08:15:13;;;;;;;56.67;21.27;;;1.00;99.90;;;;;;5140920;28;20547;-50
2022/01/12 08:17:43;;;;;;;89.77;30.30;;;1.00;99.90;;;;;;5140874;28;20426;-49
2022/01/12 08:20:18;;;;;;;68.57;25.00;;;1.00;99.90;;;;;;5125219;28;20468;-51
2022/01/12 08:22:48;;;;;;;67.60;23.90;;;1.10;99.90;;;;;;5138094;28;20396;-49
2022/01/12 08:25:19;;;;;;;57.97;22.83;;;1.10;99.90;;;;;;5145321;28;20511;-50
2022/01/12 08:27:51;;;;;;;60.60;23.60;;;1.20;99.90;;;;;;5146532;28;20189;-49
2022/01/12 08:30:28;;;;;;;55.17;22.00;;;1.20;99.90;;;;;;5141582;28;20215;-49
2022/01/12 08:32:59;;;;;;;79.03;25.90;;;1.20;99.90;;;;;;5139672;28;20452;-50
2022/01/12 08:35:29;;;;;;;66.30;23.40;;;1.30;99.90;;;;;;5136681;28;20490;-48
2022/01/12 08:38:00;;;;;;;49.67;21.53;;;1.40;99.90;;;;;;5140567;28;20201;-51
2022/01/12 08:40:31;;;;;;;58.77;22.53;;;1.50;99.90;;;;;;5143918;28;20209;-51
2022/01/12 08:43:01;;;;;;;52.07;20.23;;;1.60;99.90;;;;;;5139158;28;20189;-48
2022/01/12 08:45:32;;;;;;;56.10;21.33;;;1.70;99.90;;;;;;5142672;28;20190;-49
2022/01/12 08:48:03;;;;;;;51.00;21.23;;;1.80;99.90;;;;;;5141513;28;20205;-51
2022/01/12 08:50:34;;;;;;;50.23;20.77;;;1.90;99.90;;;;;;5138673;28;20481;-50
2022/01/12 08:53:05;;;;;;;55.60;21.80;;;1.90;99.90;;;;;;5139767;28;20285;-49
2022/01/12 08:55:35;;;;;;;54.23;21.93;;;1.90;99.90;;;;;;5145309;28;20283;-50
2022/01/12 08:58:06;;;;;;;49.27;22.00;;;1.90;99.90;;;;;;5144031;28;20181;-51
2022/01/12 09:00:37;;;;;;;52.40;21.73;;;2.00;99.90;;;;;;5137244;28;20205;-48
2022/01/12 09:03:08;;;;;;;54.27;20.83;;;2.00;99.90;;;;;;5137829;28;20237;-49
2022/01/12 09:05:39;;;;;;;54.20;19.83;;;2.10;99.90;;;;;;5140755;28;20279;-48
2022/01/12 09:08:10;;;;;;;45.60;19.27;;;2.10;99.90;;;;;;5131500;28;20463;-49
2022/01/12 09:10:40;;;;;;;55.70;20.73;;;2.20;99.90;;;;;;5139126;28;20453;-50
2022/01/12 09:13:11;;;;;;;56.20;20.43;;;2.30;99.90;;;;;;5140522;28;20618;-50
2022/01/12 09:15:41;;;;;;;50.60;21.00;;;2.30;99.90;;;;;;5139618;28;20614;-50
2022/01/12 09:18:12;;;;;;;56.03;21.43;;;2.30;99.90;;;;;;5137751;28;20182;-50
2022/01/12 09:20:43;;;;;;;54.60;21.30;;;2.20;99.90;;;;;;5138528;28;20202;-51
2022/01/12 09:23:13;;;;;;;53.13;21.77;;;2.20;99.90;;;;;;5134235;28;20190;-50
2022/01/12 09:25:44;;;;;;;45.07;20.57;;;2.20;99.90;;;;;;5142942;28;20525;-48
2022/01/12 09:28:15;;;;;;;50.17;19.63;;;2.20;99.90;;;;;;5137705;28;20178;-48
2022/01/12 09:30:45;;;;;;;52.87;21.73;;;2.30;99.90;;;;;;5131461;28;20213;-48
2022/01/12 09:33:16;;;;;;;52.27;22.77;;;2.40;99.90;;;;;;5109275;28;20182;-48
2022/01/12 09:35:49;;;;;;;54.93;22.33;;;2.40;99.90;;;;;;5120512;28;20194;-49
2022/01/12 09:38:21;;;;;;;44.13;20.07;;;2.30;99.90;;;;;;5121433;28;20855;-51
2022/01/12 09:40:53;;;;;;;60.50;22.70;;;2.40;99.90;;;;;;5106658;29;20457;-48
2022/01/12 09:43:26;;;;;;;47.67;22.00;;;2.40;99.90;;;;;;5124629;28;20952;-49
2022/01/12 09:45:57;;;;;;;54.60;21.13;;;2.40;99.90;;;;;;5109190;29;20811;-49
2022/01/12 09:48:33;;;;;;;50.33;20.47;;;2.30;99.90;;;;;;5124086;28;20426;-50
2022/01/12 09:51:07;;;;;;;65.53;24.10;;;2.30;99.90;;;;;;5128185;28;20257;-51
2022/01/12 09:53:39;;;;;;;46.27;20.10;;;2.30;99.90;;;;;;5119720;28;20469;-50
2022/01/12 09:56:17;;;;;;;50.00;20.47;;;2.30;99.90;;;;;;5117355;28;20430;-49
2022/01/12 09:58:51;;;;;;;60.23;21.40;;;2.30;99.90;;;;;;5104352;29;20440;-49
2022/01/12 10:01:32;;;;;;;53.50;20.90;;;2.40;99.90;;;;;;5108118;28;20461;-49
2022/01/12 10:04:41;;;;;;;33.27;17.23;;;2.40;99.90;;;;;;5107746;29;20516;-49
2022/01/12 10:07:13;;;;;;;41.80;19.73;;;2.40;99.90;;;;;;5040971;29;20452;-50
2022/01/12 10:09:49;;;;;;;45.33;21.20;;;2.50;99.90;;;;;;5026669;29;20516;-50
2022/01/12 10:12:21;;;;;;;39.70;18.97;;;2.50;99.90;;;;;;5083270;28;20963;-49
2022/01/12 10:14:55;;;;;;;52.83;20.77;;;2.60;99.90;;;;;;5100859;29;20463;-49
2022/01/12 10:17:37;;;;;;;45.37;20.30;;;2.70;99.90;;;;;;5105590;28;20433;-51
2022/01/12 10:20:19;;;;;;;45.70;20.60;;;2.70;99.90;;;;;;5101532;28;20450;-52
2022/01/12 10:23:08;;;;;;;52.63;21.23;;;2.70;99.90;;;;;;5121551;28;20477;-51
2022/01/12 10:25:41;;;;;;;43.07;18.13;;;2.80;99.90;;;;;;5106095;29;20820;-49
2022/01/12 10:28:20;;;;;;;47.37;19.40;;;2.80;99.90;;;;;;5106064;29;20442;-49
2022/01/12 10:31:02;;;;;;;45.20;20.80;;;2.80;99.90;;;;;;5116766;28;20468;-51
2022/01/12 10:33:34;;;;;;;41.53;18.87;;;2.80;99.90;;;;;;5138949;28;20456;-51
2022/01/12 10:36:08;;;;;;;47.23;19.77;;;2.90;99.90;;;;;;5142190;28;20433;-50
2022/01/12 10:38:39;;;;;;;46.00;19.17;;;3.00;99.90;;;;;;5138710;28;21003;-50
2022/01/12 10:41:09;;;;;;;47.60;20.10;;;3.00;99.90;;;;;;5140037;28;20453;-50
2022/01/12 10:43:44;;;;;;;44.60;20.80;;;3.10;99.90;;;;;;5136899;28;20185;-49
2022/01/12 10:46:18;;;;;;;44.63;20.63;;;3.00;99.90;;;;;;5138401;28;20182;-51
2022/01/12 10:48:52;;;;;;;51.47;22.20;;;3.10;99.90;;;;;;5137656;28;21089;-48
2022/01/12 10:51:28;;;;;;;43.00;22.00;;;3.10;99.90;;;;;;5129176;28;20484;-53
2022/01/12 10:54:01;;;;;;;55.37;23.60;;;3.10;99.90;;;;;;5123144;28;20575;-49
2022/01/12 10:56:32;;;;;;;40.03;21.10;;;3.20;99.90;;;;;;5125323;28;20437;-49
2022/01/12 10:59:02;;;;;;;47.03;22.00;;;3.30;99.90;;;;;;5143007;28;20432;-49
2022/01/12 11:01:34;;;;;;;44.70;21.30;;;3.50;99.90;;;;;;5136027;28;20285;-49
2022/01/12 11:04:05;;;;;;;58.23;21.17;;;3.50;99.90;;;;;;5142791;28;20272;-50
2022/01/12 11:06:36;;;;;;;44.63;20.97;;;3.50;99.90;;;;;;5137285;28;20440;-49
2022/01/12 11:09:06;;;;;;;47.40;20.67;;;3.50;99.90;;;;;;5142571;28;20433;-48
2022/01/12 11:11:37;;;;;;;43.80;19.37;;;3.40;99.90;;;;;;5138895;28;20840;-48
2022/01/12 11:14:08;;;;;;;40.07;18.57;;;3.40;99.90;;;;;;5151603;28;20221;-51
2022/01/12 11:16:39;;;;;;;45.80;18.50;;;3.40;99.90;;;;;;5133581;28;20182;-48
2022/01/12 11:19:10;;;;;;;40.07;18.13;;;3.40;99.90;;;;;;5140909;28;20567;-48
2022/01/12 11:21:48;;;;;;;46.10;19.73;;;3.40;99.90;;;;;;5144403;28;20918;-49
2022/01/12 11:24:19;;;;;;;36.07;17.83;;;3.50;99.90;;;;;;5143072;28;20448;-49
2022/01/12 11:26:52;;;;;;;57.27;19.50;;;3.50;99.90;;;;;;5145401;28;20680;-49
2022/01/12 11:29:34;;;;;;;56.10;21.50;;;3.50;99.90;;;;;;5138286;28;20175;-49
2022/01/12 11:32:07;;;;;;;54.00;23.87;;;3.40;99.90;;;;;;5140010;28;21060;-49
2022/01/12 11:34:37;;;;;;;46.70;20.50;;;3.40;99.90;;;;;;5142816;28;20465;-51
2022/01/12 11:37:14;;;;;;;54.77;23.10;;;3.40;99.90;;;;;;5135466;28;20771;-49
2022/01/12 11:39:44;;;;;;;54.13;23.77;;;3.50;99.90;;;;;;5140011;28;20182;-49
2022/01/12 11:42:15;;;;;;;43.63;21.30;;;3.40;99.90;;;;;;5147352;28;20487;-48
2022/01/12 11:44:46;;;;;;;53.73;24.77;;;3.40;99.90;;;;;;5139012;28;20218;-49
2022/01/12 11:47:17;;;;;;;49.57;22.07;;;3.30;99.90;;;;;;5145836;28;20436;-49
2022/01/12 11:49:52;;;;;;;57.93;23.93;;;3.40;99.90;;;;;;5154880;28;20189;-49
2022/01/12 11:52:26;;;;;;;50.20;22.60;;;3.20;99.90;;;;;;5136459;28;20635;-48
2022/01/12 11:55:08;;;;;;;47.90;21.43;;;3.20;99.90;;;;;;5132864;28;20464;-50
2022/01/12 11:57:44;;;;;;;51.03;22.37;;;3.20;99.90;;;;;;5139890;28;20516;-49
2022/01/12 12:00:20;;;;;;;63.03;23.50;;;3.00;99.90;;;;;;5138797;28;20933;-49
2022/01/12 12:02:52;;;;;;;54.30;25.63;;;3.10;99.90;;;;;;5152997;28;20964;-49
2022/01/12 12:05:30;;;;;;;63.13;22.70;;;3.20;99.90;;;;;;5137127;28;20441;-49
2022/01/12 12:08:04;;;;;;;58.00;23.00;;;3.10;99.90;;;;;;5139014;28;20575;-50
2022/01/12 12:10:37;;;;;;;55.90;23.47;;;3.10;99.90;;;;;;5139857;28;20857;-48
2022/01/12 12:13:11;;;;;;;63.50;23.20;;;3.10;99.90;;;;;;5139377;28;20468;-51
2022/01/12 12:15:42;;;;;;;62.33;26.23;;;3.10;99.90;;;;;;5137627;28;20472;-52
2022/01/12 12:18:16;;;;;;;61.93;24.43;;;3.10;99.90;;;;;;5137908;28;20517;-50
2022/01/12 12:20:46;;;;;;;66.23;23.20;;;3.10;99.90;;;;;;5141059;28;20544;-51
2022/01/12 12:23:22;;;;;;;65.40;26.07;;;3.10;99.90;;;;;;5153109;28;20511;-51
2022/01/12 12:25:52;;;;;;;51.63;23.30;;;3.00;99.90;;;;;;5138301;28;20230;-50
2022/01/12 12:28:23;;;;;;;94.97;34.90;;;3.00;99.90;;;;;;5138886;28;20477;-51
2022/01/12 12:30:54;;;;;;;61.13;25.50;;;2.90;99.90;;;;;;5140283;28;20221;-49
2022/01/12 12:33:24;;;;;;;62.17;25.70;;;2.90;99.90;;;;;;5136195;28;20240;-50
2022/01/12 12:35:55;;;;;;;71.67;26.67;;;2.80;99.90;;;;;;5139116;28;20186;-49
2022/01/12 12:38:25;;;;;;;72.13;26.10;;;2.80;99.90;;;;;;5136255;28;20548;-48
2022/01/12 12:40:57;;;;;;;78.17;28.23;;;2.90;99.90;;;;;;5130665;28;20202;-51
2022/01/12 12:43:34;;;;;;;59.37;24.87;;;2.90;99.90;;;;;;5134150;28;20274;-49
2022/01/12 12:46:14;;;;;;;73.43;25.63;;;3.00;99.90;;;;;;5142724;28;20973;-48
2022/01/12 12:48:45;;;;;;;60.80;24.17;;;3.00;99.90;;;;;;5139655;28;20429;-49
2022/01/12 12:51:17;;;;;;;60.77;27.27;;;3.10;99.90;;;;;;5141328;28;20504;-49
2022/01/12 12:53:56;;;;;;;61.40;27.70;;;3.10;99.90;;;;;;5138130;28;20464;-48
2022/01/12 12:56:28;;;;;;;78.63;27.20;;;3.10;99.90;;;;;;5140034;28;20441;-50
2022/01/12 12:58:59;;;;;;;67.07;26.60;;;3.10;99.90;;;;;;5140749;28;20479;-49
2022/01/12 13:01:30;;;;;;;75.43;25.60;;;3.10;99.90;;;;;;5144053;28;20869;-49
2022/01/12 13:04:02;;;;;;;74.67;27.57;;;3.10;99.90;;;;;;5141892;28;20186;-50
2022/01/12 13:06:35;;;;;;;89.23;28.80;;;3.10;99.90;;;;;;5141595;28;20189;-50
2022/01/12 13:09:09;;;;;;;90.87;31.10;;;3.00;99.90;;;;;;5135216;28;20437;-50
2022/01/12 13:11:46;;;;;;;76.20;29.97;;;3.00;99.90;;;;;;5141040;28;20491;-51
2022/01/12 13:14:18;;;;;;;83.20;28.83;;;3.00;99.90;;;;;;5141292;28;20475;-49
2022/01/12 13:16:52;;;;;;;96.53;31.10;;;2.90;99.90;;;;;;5137492;28;20470;-50
2022/01/12 13:21:07;;;;;;;85.63;33.20;;;3.00;99.90;;;;;;5140923;28;20468;-48
2022/01/12 13:22:38;;;;;;;83.53;28.17;;;2.90;99.90;;;;;;5140072;28;20444;-48
2022/01/12 13:25:11;;;;;;;89.87;29.47;;;3.00;99.90;;;;;;5145888;28;20440;-48
2022/01/12 13:27:45;;;;;;;76.03;27.90;;;3.10;99.90;;;;;;5154728;28;20501;-49
2022/01/12 13:30:28;;;;;;;75.37;27.40;;;3.10;99.90;;;;;;5132719;28;20464;-49
2022/01/12 13:33:00;;;;;;;87.27;28.93;;;3.10;99.90;;;;;;5135004;28;20905;-49
2022/01/12 13:35:35;;;;;;;84.13;27.50;;;3.20;99.90;;;;;;5138069;28;20468;-50
2022/01/12 13:38:07;;;;;;;85.67;28.77;;;3.20;99.90;;;;;;5141842;28;20436;-50
2022/01/12 13:40:41;;;;;;;76.80;28.93;;;3.20;99.90;;;;;;5140253;28;20600;-49
2022/01/12 13:43:12;;;;;;;94.80;30.93;;;3.10;99.90;;;;;;5138378;28;20425;-49
2022/01/12 13:45:45;;;;;;;91.63;31.20;;;3.00;99.90;;;;;;5153660;28;20921;-48
2022/01/12 13:48:18;;;;;;;83.00;30.07;;;3.10;99.90;;;;;;5138999;28;20311;-49
2022/01/12 13:50:53;;;;;;;84.33;29.87;;;3.10;99.90;;;;;;5141400;28;20834;-49
2022/01/12 13:53:38;;;;;;;100.27;30.80;;;3.10;99.90;;;;;;5139578;28;20443;-49
2022/01/12 13:56:09;;;;;;;83.23;30.00;;;3.10;99.90;;;;;;5159693;28;20461;-50
2022/01/12 13:58:40;;;;;;;110.50;34.50;;;3.00;99.90;;;;;;5153140;23;20497;-56
2022/01/12 14:01:11;;;;;;;109.63;35.30;;;3.00;99.90;;;;;;5161509;28;20456;-53
2022/01/12 14:03:55;;;;;;;103.93;34.07;;;3.10;99.90;;;;;;5160756;28;20178;-52
2022/01/12 14:06:27;;;;;;;90.17;29.27;;;3.10;99.90;;;;;;5157878;28;20545;-53
2022/01/12 14:09:00;;;;;;;110.13;33.37;;;3.20;99.90;;;;;;5153525;28;20453;-53
2022/01/12 14:11:37;;;;;;;103.67;33.97;;;3.20;99.90;;;;;;5141956;28;20444;-52
2022/01/12 14:14:08;;;;;;;108.10;35.47;;;3.20;99.90;;;;;;5141450;28;20497;-52